Airfield :
LOGIN :

Register | Disclaimer

   EN    FR    IT 

 










Legend :    VFR   Marginal VFR   IFR   Intensive IFR   Very Intensive IFR
Visi :
Ceiling :
>= 8 km
>= 3000ft
5 to 8 km
1000 to 3000 ft
1500m to 5 km
500 to 1000 ft
800 to 1500m
200 to 500 ft
< 800m
< 200 ft
Symbols :   Thunderstorms  Fog  Heavy snow  Heavy precipitations  Wind > 20 kt
SIGMETs :     Misc.  Thunderstorms  Icing  Turbulence  Mountain Waves  Volcanic Ashes






- Airport Elevation : 26 ft


ETNT - Wittmundhaven AB

CURRENT METAR :
  • 130930Z 19014KT 8000 -SHRA FEW006 BKN009TCU 05/04 Q0996 GRN WHT TEMPO GRN

EXPIRED METARs :
  • 130920Z 19015G25KT 7000 -SHRA BKN010TCU 05/04 Q0996 GRN WHT TEMPO GRN
  • 130905Z 19014KT 7000 -SHRA BKN010TCU 05/03 Q0996 GRN WHT TEMPO GRN
  • 130820Z 18014KT 9999 BKN007 05/03 Q0996 GRN WHT TEMPO GRN
  • 130720Z 19014KT 9999 BKN008 04/02 Q0996 GRN WHT TEMPO GRN

TAF TAF ETNT
Valid from the 13 at 09:00 until the 13 at 18:00 UTC


130816Z 1309/1318 18010G20KT 9999 NSW BKN015
TEMPO 1309/1318 24018G28KT 4000 SHRA BKN007TCU
PROB30 1309/1314 23015G25KT 3000 SHRA BKN006TCU BY ETGL



MET'MAP, your aeronautical weather chart ! - Copyright ORBIFLY December 2007 - Disclaimer

ORBIFLY MET'MAP TEAM :

Programming & Development : Alexandra Zaïnal
Concept & Development : Baudouin d'Aumeries
Co-Development & Prog : Marc-Olivier Méhu
Technical & hardware support : Manuel Goepfert

Contact : metmap@orbifly.com




SOURCES & CREDITS :

   NOAA